sensor_id;sensor_type;location;lat;lon;timestamp;P1;durP1;ratioP1;P2;durP2;ratioP2
21663;SDS011;10993;52.510;13.456;2022-11-20T00:04:18;18.10;;;8.03;;
21663;SDS011;10993;52.510;13.456;2022-11-20T00:09:20;14.57;;;6.50;;
21663;SDS011;10993;52.510;13.456;2022-11-20T00:14:20;14.50;;;6.00;;
21663;SDS011;10993;52.510;13.456;2022-11-20T00:19:20;9.73;;;5.17;;
21663;SDS011;10993;52.510;13.456;2022-11-20T00:24:22;13.23;;;5.50;;
21663;SDS011;10993;52.510;13.456;2022-11-20T00:29:22;9.83;;;4.50;;
21663;SDS011;10993;52.510;13.456;2022-11-20T00:34:23;12.43;;;5.43;;
21663;SDS011;10993;52.510;13.456;2022-11-20T00:39:24;11.23;;;5.50;;
21663;SDS011;10993;52.510;13.456;2022-11-20T00:44:25;12.27;;;6.00;;
21663;SDS011;10993;52.510;13.456;2022-11-20T00:49:25;12.70;;;5.33;;
21663;SDS011;10993;52.510;13.456;2022-11-20T00:54:27;12.60;;;5.43;;
21663;SDS011;10993;52.510;13.456;2022-11-20T00:59:27;11.00;;;5.07;;
21663;SDS011;10993;52.510;13.456;2022-11-20T01:04:27;13.97;;;5.50;;
21663;SDS011;10993;52.510;13.456;2022-11-20T01:09:29;15.00;;;5.90;;
21663;SDS011;10993;52.510;13.456;2022-11-20T01:14:29;15.23;;;7.63;;
21663;SDS011;10993;52.510;13.456;2022-11-20T01:19:30;22.43;;;8.73;;
21663;SDS011;10993;52.510;13.456;2022-11-20T01:24:31;20.43;;;7.20;;
21663;SDS011;10993;52.510;13.456;2022-11-20T01:29:32;15.73;;;6.97;;
21663;SDS011;10993;52.510;13.456;2022-11-20T01:34:32;14.17;;;5.90;;
21663;SDS011;10993;52.510;13.456;2022-11-20T01:39:34;16.93;;;6.60;;
21663;SDS011;10993;52.510;13.456;2022-11-20T01:44:43;12.00;;;6.03;;
21663;SDS011;10993;52.510;13.456;2022-11-20T01:49:50;12.13;;;5.77;;
21663;SDS011;10993;52.510;13.456;2022-11-20T01:54:57;16.53;;;6.97;;
21663;SDS011;10993;52.510;13.456;2022-11-20T02:00:04;13.27;;;6.23;;
21663;SDS011;10993;52.510;13.456;2022-11-20T02:05:09;14.77;;;7.40;;
21663;SDS011;10993;52.510;13.456;2022-11-20T02:10:18;17.00;;;7.00;;
21663;SDS011;10993;52.510;13.456;2022-11-20T02:15:18;15.50;;;6.20;;
21663;SDS011;10993;52.510;13.456;2022-11-20T02:20:19;16.77;;;6.73;;
21663;SDS011;10993;52.510;13.456;2022-11-20T02:25:21;15.87;;;6.60;;
21663;SDS011;10993;52.510;13.456;2022-11-20T02:30:22;12.83;;;5.93;;
21663;SDS011;10993;52.510;13.456;2022-11-20T02:35:39;15.10;;;6.13;;
21663;SDS011;10993;52.510;13.456;2022-11-20T02:40:44;17.73;;;6.87;;
21663;SDS011;10993;52.510;13.456;2022-11-20T02:45:44;10.40;;;5.00;;
21663;SDS011;10993;52.510;13.456;2022-11-20T02:50:44;13.90;;;6.23;;
21663;SDS011;10993;52.510;13.456;2022-11-20T02:55:46;11.63;;;4.80;;
21663;SDS011;10993;52.510;13.456;2022-11-20T03:00:46;11.97;;;5.63;;
21663;SDS011;10993;52.510;13.456;2022-11-20T03:05:47;12.60;;;5.43;;
21663;SDS011;10993;52.510;13.456;2022-11-20T03:10:48;14.83;;;5.87;;
21663;SDS011;10993;52.510;13.456;2022-11-20T03:15:49;8.47;;;4.33;;
21663;SDS011;10993;52.510;13.456;2022-11-20T03:20:49;9.17;;;4.70;;
21663;SDS011;10993;52.510;13.456;2022-11-20T03:25:51;15.13;;;6.17;;
21663;SDS011;10993;52.510;13.456;2022-11-20T03:30:51;16.43;;;5.70;;
21663;SDS011;10993;52.510;13.456;2022-11-20T03:35:51;15.17;;;5.57;;
21663;SDS011;10993;52.510;13.456;2022-11-20T03:40:57;14.47;;;6.57;;
21663;SDS011;10993;52.510;13.456;2022-11-20T03:45:58;7.80;;;4.57;;
21663;SDS011;10993;52.510;13.456;2022-11-20T03:51:09;12.77;;;5.77;;
21663;SDS011;10993;52.510;13.456;2022-11-20T03:56:13;10.30;;;4.97;;
21663;SDS011;10993;52.510;13.456;2022-11-20T04:01:15;10.53;;;4.97;;
21663;SDS011;10993;52.510;13.456;2022-11-20T04:06:18;11.73;;;5.97;;
21663;SDS011;10993;52.510;13.456;2022-11-20T04:11:21;15.97;;;7.10;;
21663;SDS011;10993;52.510;13.456;2022-11-20T04:16:23;17.33;;;6.43;;
21663;SDS011;10993;52.510;13.456;2022-11-20T04:21:25;23.40;;;8.87;;
21663;SDS011;10993;52.510;13.456;2022-11-20T04:26:27;20.10;;;8.03;;
21663;SDS011;10993;52.510;13.456;2022-11-20T04:31:30;16.83;;;7.03;;
21663;SDS011;10993;52.510;13.456;2022-11-20T04:36:32;16.10;;;6.53;;
21663;SDS011;10993;52.510;13.456;2022-11-20T04:41:35;18.30;;;6.33;;
21663;SDS011;10993;52.510;13.456;2022-11-20T04:46:37;12.43;;;6.00;;
21663;SDS011;10993;52.510;13.456;2022-11-20T04:51:39;13.57;;;6.70;;
21663;SDS011;10993;52.510;13.456;2022-11-20T04:56:41;14.13;;;6.33;;
21663;SDS011;10993;52.510;13.456;2022-11-20T05:01:41;13.53;;;5.63;;
21663;SDS011;10993;52.510;13.456;2022-11-20T05:06:41;13.87;;;6.50;;
21663;SDS011;10993;52.510;13.456;2022-11-20T05:11:43;15.60;;;7.10;;
21663;SDS011;10993;52.510;13.456;2022-11-20T05:16:43;15.07;;;5.60;;
21663;SDS011;10993;52.510;13.456;2022-11-20T05:21:44;13.23;;;5.53;;
21663;SDS011;10993;52.510;13.456;2022-11-20T05:26:45;14.27;;;5.63;;
21663;SDS011;10993;52.510;13.456;2022-11-20T05:31:46;11.60;;;5.67;;
21663;SDS011;10993;52.510;13.456;2022-11-20T05:36:46;10.53;;;5.43;;
21663;SDS011;10993;52.510;13.456;2022-11-20T05:41:48;11.40;;;5.43;;
21663;SDS011;10993;52.510;13.456;2022-11-20T05:47:08;13.40;;;5.97;;
21663;SDS011;10993;52.510;13.456;2022-11-20T05:52:08;12.07;;;5.93;;
21663;SDS011;10993;52.510;13.456;2022-11-20T05:57:10;12.97;;;6.40;;
21663;SDS011;10993;52.510;13.456;2022-11-20T06:02:10;15.17;;;6.70;;
21663;SDS011;10993;52.510;13.456;2022-11-20T06:07:11;20.63;;;7.47;;
21663;SDS011;10993;52.510;13.456;2022-11-20T06:12:12;16.20;;;7.03;;
21663;SDS011;10993;52.510;13.456;2022-11-20T06:17:13;14.57;;;5.83;;
21663;SDS011;10993;52.510;13.456;2022-11-20T06:22:13;15.85;;;6.18;;
21663;SDS011;10993;52.510;13.456;2022-11-20T06:27:15;11.77;;;5.30;;
21663;SDS011;10993;52.510;13.456;2022-11-20T06:32:16;12.63;;;5.77;;
21663;SDS011;10993;52.510;13.456;2022-11-20T06:37:16;11.50;;;5.40;;
21663;SDS011;10993;52.510;13.456;2022-11-20T06:42:18;14.07;;;5.90;;
21663;SDS011;10993;52.510;13.456;2022-11-20T06:47:18;22.40;;;6.83;;
21663;SDS011;10993;52.510;13.456;2022-11-20T06:52:18;14.37;;;5.43;;
21663;SDS011;10993;52.510;13.456;2022-11-20T06:57:20;14.57;;;5.67;;
21663;SDS011;10993;52.510;13.456;2022-11-20T07:02:20;11.37;;;5.07;;
21663;SDS011;10993;52.510;13.456;2022-11-20T07:07:21;16.00;;;6.27;;
21663;SDS011;10993;52.510;13.456;2022-11-20T07:12:22;15.07;;;6.73;;
21663;SDS011;10993;52.510;13.456;2022-11-20T07:17:23;14.70;;;6.27;;
21663;SDS011;10993;52.510;13.456;2022-11-20T07:22:23;14.30;;;6.63;;
21663;SDS011;10993;52.510;13.456;2022-11-20T07:27:25;15.17;;;6.70;;
21663;SDS011;10993;52.510;13.456;2022-11-20T07:32:25;16.77;;;6.03;;
21663;SDS011;10993;52.510;13.456;2022-11-20T07:37:25;14.77;;;6.10;;
21663;SDS011;10993;52.510;13.456;2022-11-20T07:42:27;18.77;;;8.87;;
21663;SDS011;10993;52.510;13.456;2022-11-20T07:47:27;26.77;;;12.30;;
21663;SDS011;10993;52.510;13.456;2022-11-20T07:52:28;14.47;;;5.97;;
21663;SDS011;10993;52.510;13.456;2022-11-20T07:57:30;12.63;;;5.87;;
21663;SDS011;10993;52.510;13.456;2022-11-20T08:02:30;15.97;;;6.37;;
21663;SDS011;10993;52.510;13.456;2022-11-20T08:07:34;12.97;;;6.37;;
21663;SDS011;10993;52.510;13.456;2022-11-20T08:12:42;16.13;;;5.50;;
21663;SDS011;10993;52.510;13.456;2022-11-20T08:18:02;14.70;;;6.43;;
21663;SDS011;10993;52.510;13.456;2022-11-20T08:23:05;12.33;;;5.50;;
21663;SDS011;10993;52.510;13.456;2022-11-20T08:28:09;14.30;;;6.63;;
21663;SDS011;10993;52.510;13.456;2022-11-20T08:33:09;15.70;;;7.00;;
21663;SDS011;10993;52.510;13.456;2022-11-20T08:38:10;15.40;;;7.27;;
21663;SDS011;10993;52.510;13.456;2022-11-20T08:43:11;12.27;;;6.03;;
21663;SDS011;10993;52.510;13.456;2022-11-20T08:48:11;20.30;;;8.53;;
21663;SDS011;10993;52.510;13.456;2022-11-20T08:53:12;22.70;;;9.40;;
21663;SDS011;10993;52.510;13.456;2022-11-20T08:58:13;12.13;;;6.17;;
21663;SDS011;10993;52.510;13.456;2022-11-20T09:03:14;13.83;;;6.07;;
21663;SDS011;10993;52.510;13.456;2022-11-20T09:08:14;13.80;;;6.40;;
21663;SDS011;10993;52.510;13.456;2022-11-20T09:13:16;12.80;;;5.43;;
21663;SDS011;10993;52.510;13.456;2022-11-20T09:18:16;12.57;;;5.80;;
21663;SDS011;10993;52.510;13.456;2022-11-20T09:23:16;14.10;;;5.50;;
21663;SDS011;10993;52.510;13.456;2022-11-20T09:28:19;12.00;;;5.67;;
21663;SDS011;10993;52.510;13.456;2022-11-20T09:33:19;12.43;;;5.80;;
21663;SDS011;10993;52.510;13.456;2022-11-20T09:38:19;13.05;;;5.07;;
21663;SDS011;10993;52.510;13.456;2022-11-20T09:43:21;10.83;;;5.30;;
21663;SDS011;10993;52.510;13.456;2022-11-20T09:48:43;22.53;;;9.17;;
21663;SDS011;10993;52.510;13.456;2022-11-20T09:54:00;16.10;;;5.90;;
21663;SDS011;10993;52.510;13.456;2022-11-20T09:59:18;12.47;;;5.60;;
21663;SDS011;10993;52.510;13.456;2022-11-20T10:04:29;12.10;;;5.47;;
21663;SDS011;10993;52.510;13.456;2022-11-20T10:09:33;11.17;;;5.63;;
21663;SDS011;10993;52.510;13.456;2022-11-20T10:14:41;10.83;;;5.43;;
21663;SDS011;10993;52.510;13.456;2022-11-20T10:19:53;13.97;;;6.27;;
21663;SDS011;10993;52.510;13.456;2022-11-20T10:25:04;13.30;;;6.73;;
21663;SDS011;10993;52.510;13.456;2022-11-20T10:30:15;9.10;;;4.83;;
21663;SDS011;10993;52.510;13.456;2022-11-20T10:35:21;9.00;;;4.90;;
21663;SDS011;10993;52.510;13.456;2022-11-20T10:40:27;13.63;;;6.17;;
21663;SDS011;10993;52.510;13.456;2022-11-20T10:45:43;12.47;;;6.03;;
21663;SDS011;10993;52.510;13.456;2022-11-20T10:51:01;15.73;;;6.13;;
21663;SDS011;10993;52.510;13.456;2022-11-20T10:56:11;11.87;;;5.47;;
21663;SDS011;10993;52.510;13.456;2022-11-20T11:01:20;14.23;;;6.27;;
21663;SDS011;10993;52.510;13.456;2022-11-20T11:06:25;16.27;;;6.60;;
21663;SDS011;10993;52.510;13.456;2022-11-20T11:11:32;13.70;;;6.33;;
21663;SDS011;10993;52.510;13.456;2022-11-20T11:16:34;12.27;;;5.30;;
21663;SDS011;10993;52.510;13.456;2022-11-20T11:21:35;14.93;;;6.23;;
21663;SDS011;10993;52.510;13.456;2022-11-20T11:26:41;11.57;;;5.53;;
21663;SDS011;10993;52.510;13.456;2022-11-20T11:32:03;11.00;;;5.50;;
21663;SDS011;10993;52.510;13.456;2022-11-20T11:37:05;13.60;;;5.37;;
21663;SDS011;10993;52.510;13.456;2022-11-20T11:42:16;13.90;;;6.30;;
21663;SDS011;10993;52.510;13.456;2022-11-20T11:47:21;14.03;;;6.20;;
21663;SDS011;10993;52.510;13.456;2022-11-20T11:52:24;12.67;;;5.70;;
21663;SDS011;10993;52.510;13.456;2022-11-20T11:57:26;12.10;;;6.37;;
21663;SDS011;10993;52.510;13.456;2022-11-20T12:02:34;12.17;;;5.67;;
21663;SDS011;10993;52.510;13.456;2022-11-20T12:07:41;18.03;;;7.50;;
21663;SDS011;10993;52.510;13.456;2022-11-20T12:12:44;27.37;;;9.37;;
21663;SDS011;10993;52.510;13.456;2022-11-20T12:17:49;11.43;;;5.63;;
21663;SDS011;10993;52.510;13.456;2022-11-20T12:22:51;16.83;;;7.07;;
21663;SDS011;10993;52.510;13.456;2022-11-20T12:28:03;15.43;;;6.57;;
21663;SDS011;10993;52.510;13.456;2022-11-20T12:33:20;14.70;;;6.27;;
21663;SDS011;10993;52.510;13.456;2022-11-20T12:38:39;14.40;;;5.97;;
21663;SDS011;10993;52.510;13.456;2022-11-20T12:43:56;13.17;;;5.90;;
21663;SDS011;10993;52.510;13.456;2022-11-20T12:49:31;10.90;;;5.57;;
21663;SDS011;10993;52.510;13.456;2022-11-20T12:54:41;12.67;;;5.80;;
21663;SDS011;10993;52.510;13.456;2022-11-20T13:00:01;13.23;;;5.43;;
21663;SDS011;10993;52.510;13.456;2022-11-20T13:05:18;14.20;;;6.07;;
21663;SDS011;10993;52.510;13.456;2022-11-20T13:10:23;10.20;;;4.37;;
21663;SDS011;10993;52.510;13.456;2022-11-20T13:15:36;13.60;;;4.47;;
21663;SDS011;10993;52.510;13.456;2022-11-20T13:20:48;10.07;;;3.30;;
21663;SDS011;10993;52.510;13.456;2022-11-20T13:25:49;7.63;;;3.33;;
21663;SDS011;10993;52.510;13.456;2022-11-20T13:30:50;8.90;;;4.10;;
21663;SDS011;10993;52.510;13.456;2022-11-20T13:35:56;8.07;;;3.77;;
21663;SDS011;10993;52.510;13.456;2022-11-20T13:40:59;11.13;;;3.50;;
21663;SDS011;10993;52.510;13.456;2022-11-20T13:46:23;8.63;;;3.97;;
21663;SDS011;10993;52.510;13.456;2022-11-20T13:51:40;11.30;;;5.40;;
21663;SDS011;10993;52.510;13.456;2022-11-20T13:56:47;14.30;;;4.63;;
21663;SDS011;10993;52.510;13.456;2022-11-20T14:01:54;9.03;;;3.73;;
21663;SDS011;10993;52.510;13.456;2022-11-20T14:06:56;8.73;;;4.10;;
21663;SDS011;10993;52.510;13.456;2022-11-20T14:11:57;9.67;;;4.27;;
21663;SDS011;10993;52.510;13.456;2022-11-20T14:17:04;8.17;;;3.50;;
21663;SDS011;10993;52.510;13.456;2022-11-20T14:22:09;8.13;;;3.90;;
21663;SDS011;10993;52.510;13.456;2022-11-20T14:27:17;10.67;;;3.80;;
21663;SDS011;10993;52.510;13.456;2022-11-20T14:32:19;10.93;;;3.87;;
21663;SDS011;10993;52.510;13.456;2022-11-20T14:37:27;7.90;;;3.67;;
21663;SDS011;10993;52.510;13.456;2022-11-20T14:42:33;7.63;;;3.27;;
21663;SDS011;10993;52.510;13.456;2022-11-20T14:47:33;12.37;;;3.90;;
21663;SDS011;10993;52.510;13.456;2022-11-20T14:52:36;8.37;;;3.77;;
21663;SDS011;10993;52.510;13.456;2022-11-20T14:57:36;12.27;;;4.90;;
21663;SDS011;10993;52.510;13.456;2022-11-20T15:02:39;7.17;;;4.20;;
21663;SDS011;10993;52.510;13.456;2022-11-20T15:07:43;7.87;;;4.30;;
21663;SDS011;10993;52.510;13.456;2022-11-20T15:12:48;7.60;;;4.17;;
21663;SDS011;10993;52.510;13.456;2022-11-20T15:17:51;15.13;;;4.27;;
21663;SDS011;10993;52.510;13.456;2022-11-20T15:22:53;11.63;;;4.70;;
21663;SDS011;10993;52.510;13.456;2022-11-20T15:27:54;7.93;;;3.40;;
21663;SDS011;10993;52.510;13.456;2022-11-20T15:32:55;9.43;;;4.50;;
21663;SDS011;10993;52.510;13.456;2022-11-20T15:37:57;8.27;;;3.75;;
21663;SDS011;10993;52.510;13.456;2022-11-20T15:42:57;7.73;;;3.80;;
21663;SDS011;10993;52.510;13.456;2022-11-20T15:48:04;8.80;;;4.50;;
21663;SDS011;10993;52.510;13.456;2022-11-20T15:53:10;8.30;;;3.63;;
21663;SDS011;10993;52.510;13.456;2022-11-20T15:58:10;10.87;;;4.90;;
21663;SDS011;10993;52.510;13.456;2022-11-20T16:03:11;9.07;;;4.07;;
21663;SDS011;10993;52.510;13.456;2022-11-20T16:08:13;7.37;;;3.77;;
21663;SDS011;10993;52.510;13.456;2022-11-20T16:13:14;9.80;;;4.40;;
21663;SDS011;10993;52.510;13.456;2022-11-20T16:18:35;10.53;;;4.00;;
21663;SDS011;10993;52.510;13.456;2022-11-20T16:23:36;9.27;;;3.53;;
21663;SDS011;10993;52.510;13.456;2022-11-20T16:28:36;6.77;;;3.90;;
21663;SDS011;10993;52.510;13.456;2022-11-20T16:33:37;11.07;;;4.50;;
21663;SDS011;10993;52.510;13.456;2022-11-20T16:38:39;11.37;;;4.17;;
21663;SDS011;10993;52.510;13.456;2022-11-20T16:43:46;9.83;;;4.33;;
21663;SDS011;10993;52.510;13.456;2022-11-20T16:48:51;9.97;;;4.83;;
21663;SDS011;10993;52.510;13.456;2022-11-20T16:53:54;10.67;;;4.33;;
21663;SDS011;10993;52.510;13.456;2022-11-20T16:58:55;10.87;;;4.20;;
21663;SDS011;10993;52.510;13.456;2022-11-20T17:03:58;11.70;;;4.50;;
21663;SDS011;10993;52.510;13.456;2022-11-20T17:09:02;7.10;;;3.80;;
21663;SDS011;10993;52.510;13.456;2022-11-20T17:14:03;7.63;;;3.87;;
21663;SDS011;10993;52.510;13.456;2022-11-20T17:19:03;10.97;;;4.20;;
21663;SDS011;10993;52.510;13.456;2022-11-20T17:24:06;12.63;;;4.87;;
21663;SDS011;10993;52.510;13.456;2022-11-20T17:29:09;8.63;;;4.07;;
21663;SDS011;10993;52.510;13.456;2022-11-20T17:34:12;8.63;;;4.07;;
21663;SDS011;10993;52.510;13.456;2022-11-20T17:39:15;9.47;;;4.87;;
21663;SDS011;10993;52.510;13.456;2022-11-20T17:44:16;15.47;;;6.80;;
21663;SDS011;10993;52.510;13.456;2022-11-20T17:49:17;10.37;;;4.77;;
21663;SDS011;10993;52.510;13.456;2022-11-20T17:54:18;8.27;;;4.73;;
21663;SDS011;10993;52.510;13.456;2022-11-20T17:59:19;11.20;;;4.67;;
21663;SDS011;10993;52.510;13.456;2022-11-20T18:04:19;10.67;;;4.47;;
21663;SDS011;10993;52.510;13.456;2022-11-20T18:09:21;11.03;;;5.20;;
21663;SDS011;10993;52.510;13.456;2022-11-20T18:14:21;12.20;;;5.37;;
21663;SDS011;10993;52.510;13.456;2022-11-20T18:19:32;15.20;;;5.73;;
21663;SDS011;10993;52.510;13.456;2022-11-20T18:24:35;11.77;;;5.07;;
21663;SDS011;10993;52.510;13.456;2022-11-20T18:29:38;8.90;;;4.50;;
21663;SDS011;10993;52.510;13.456;2022-11-20T18:34:38;9.77;;;4.50;;
21663;SDS011;10993;52.510;13.456;2022-11-20T18:39:40;11.23;;;4.80;;
21663;SDS011;10993;52.510;13.456;2022-11-20T18:44:41;11.40;;;4.57;;
21663;SDS011;10993;52.510;13.456;2022-11-20T18:49:51;12.40;;;5.00;;
21663;SDS011;10993;52.510;13.456;2022-11-20T18:54:53;12.73;;;5.70;;
21663;SDS011;10993;52.510;13.456;2022-11-20T18:59:54;10.40;;;5.17;;
21663;SDS011;10993;52.510;13.456;2022-11-20T19:04:58;11.73;;;5.50;;
21663;SDS011;10993;52.510;13.456;2022-11-20T19:10:00;17.13;;;6.20;;
21663;SDS011;10993;52.510;13.456;2022-11-20T19:15:00;13.87;;;5.67;;
21663;SDS011;10993;52.510;13.456;2022-11-20T19:20:00;11.00;;;4.73;;
21663;SDS011;10993;52.510;13.456;2022-11-20T19:25:02;9.07;;;4.30;;
21663;SDS011;10993;52.510;13.456;2022-11-20T19:30:03;9.47;;;4.17;;
21663;SDS011;10993;52.510;13.456;2022-11-20T19:35:05;9.60;;;4.87;;
21663;SDS011;10993;52.510;13.456;2022-11-20T19:40:07;13.23;;;5.60;;
21663;SDS011;10993;52.510;13.456;2022-11-20T19:45:08;8.90;;;4.63;;
21663;SDS011;10993;52.510;13.456;2022-11-20T19:50:08;11.37;;;5.57;;
21663;SDS011;10993;52.510;13.456;2022-11-20T19:55:10;13.93;;;5.70;;
21663;SDS011;10993;52.510;13.456;2022-11-20T20:00:11;13.00;;;5.80;;
21663;SDS011;10993;52.510;13.456;2022-11-20T20:05:13;13.30;;;5.73;;
21663;SDS011;10993;52.510;13.456;2022-11-20T20:10:14;20.73;;;6.80;;
21663;SDS011;10993;52.510;13.456;2022-11-20T20:15:17;14.20;;;5.83;;
21663;SDS011;10993;52.510;13.456;2022-11-20T20:20:17;9.53;;;4.33;;
21663;SDS011;10993;52.510;13.456;2022-11-20T20:25:19;10.53;;;5.07;;
21663;SDS011;10993;52.510;13.456;2022-11-20T20:30:19;15.87;;;5.23;;
21663;SDS011;10993;52.510;13.456;2022-11-20T20:35:19;11.57;;;5.53;;
21663;SDS011;10993;52.510;13.456;2022-11-20T20:40:21;9.80;;;5.00;;
21663;SDS011;10993;52.510;13.456;2022-11-20T20:45:22;11.17;;;5.07;;
21663;SDS011;10993;52.510;13.456;2022-11-20T20:50:22;10.63;;;4.73;;
21663;SDS011;10993;52.510;13.456;2022-11-20T20:55:24;9.60;;;4.37;;
21663;SDS011;10993;52.510;13.456;2022-11-20T21:00:24;13.17;;;5.23;;
21663;SDS011;10993;52.510;13.456;2022-11-20T21:05:25;10.90;;;4.97;;
21663;SDS011;10993;52.510;13.456;2022-11-20T21:10:27;11.77;;;4.93;;
21663;SDS011;10993;52.510;13.456;2022-11-20T21:15:27;17.90;;;6.23;;
21663;SDS011;10993;52.510;13.456;2022-11-20T21:20:27;13.90;;;5.40;;
21663;SDS011;10993;52.510;13.456;2022-11-20T21:25:48;12.07;;;4.83;;
21663;SDS011;10993;52.510;13.456;2022-11-20T21:30:48;11.30;;;5.07;;
21663;SDS011;10993;52.510;13.456;2022-11-20T21:35:48;9.70;;;4.37;;
21663;SDS011;10993;52.510;13.456;2022-11-20T21:40:50;10.03;;;4.40;;
21663;SDS011;10993;52.510;13.456;2022-11-20T21:45:50;11.63;;;4.70;;
21663;SDS011;10993;52.510;13.456;2022-11-20T21:50:52;7.50;;;3.80;;
21663;SDS011;10993;52.510;13.456;2022-11-20T21:55:54;10.10;;;4.90;;
21663;SDS011;10993;52.510;13.456;2022-11-20T22:00:55;7.37;;;4.20;;
21663;SDS011;10993;52.510;13.456;2022-11-20T22:05:55;10.00;;;4.07;;
21663;SDS011;10993;52.510;13.456;2022-11-20T22:10:59;10.80;;;5.13;;
21663;SDS011;10993;52.510;13.456;2022-11-20T22:16:01;8.00;;;4.50;;
21663;SDS011;10993;52.510;13.456;2022-11-20T22:21:04;11.70;;;5.07;;
21663;SDS011;10993;52.510;13.456;2022-11-20T22:26:08;12.33;;;4.83;;
21663;SDS011;10993;52.510;13.456;2022-11-20T22:31:09;9.97;;;4.67;;
21663;SDS011;10993;52.510;13.456;2022-11-20T22:36:10;10.43;;;4.20;;
21663;SDS011;10993;52.510;13.456;2022-11-20T22:41:13;9.57;;;4.57;;
21663;SDS011;10993;52.510;13.456;2022-11-20T22:46:16;11.93;;;5.00;;
21663;SDS011;10993;52.510;13.456;2022-11-20T22:51:18;16.60;;;5.70;;
21663;SDS011;10993;52.510;13.456;2022-11-20T22:56:22;13.10;;;4.70;;
21663;SDS011;10993;52.510;13.456;2022-11-20T23:01:23;12.77;;;5.37;;
21663;SDS011;10993;52.510;13.456;2022-11-20T23:06:24;10.77;;;4.70;;
21663;SDS011;10993;52.510;13.456;2022-11-20T23:11:27;10.30;;;5.33;;
21663;SDS011;10993;52.510;13.456;2022-11-20T23:16:28;11.70;;;5.20;;
21663;SDS011;10993;52.510;13.456;2022-11-20T23:21:30;16.10;;;6.00;;
21663;SDS011;10993;52.510;13.456;2022-11-20T23:26:32;15.13;;;5.43;;
21663;SDS011;10993;52.510;13.456;2022-11-20T23:31:34;14.87;;;6.23;;
21663;SDS011;10993;52.510;13.456;2022-11-20T23:36:35;14.23;;;5.00;;
21663;SDS011;10993;52.510;13.456;2022-11-20T23:41:36;11.67;;;5.63;;
21663;SDS011;10993;52.510;13.456;2022-11-20T23:46:37;23.33;;;9.70;;
21663;SDS011;10993;52.510;13.456;2022-11-20T23:51:37;13.43;;;6.37;;
21663;SDS011;10993;52.510;13.456;2022-11-20T23:56:39;10.80;;;5.67;;
